sensor_id;sensor_type;location;lat;lon;timestamp;P1;durP1;ratioP1;P2;durP2;ratioP2
58758;SDS011;46777;47.482;19.054;2022-07-06T00:01:34;8.60;;;7.80;;
58758;SDS011;46777;47.482;19.054;2022-07-06T00:04:19;8.63;;;7.90;;
58758;SDS011;46777;47.482;19.054;2022-07-06T00:07:04;9.00;;;8.10;;
58758;SDS011;46777;47.482;19.054;2022-07-06T00:09:49;8.90;;;8.00;;
58758;SDS011;46777;47.482;19.054;2022-07-06T00:12:34;8.73;;;7.90;;
58758;SDS011;46777;47.482;19.054;2022-07-06T00:15:18;8.95;;;8.10;;
58758;SDS011;46777;47.482;19.054;2022-07-06T00:18:03;8.52;;;7.82;;
58758;SDS011;46777;47.482;19.054;2022-07-06T00:20:48;9.13;;;8.32;;
58758;SDS011;46777;47.482;19.054;2022-07-06T00:23:33;8.75;;;7.95;;
58758;SDS011;46777;47.482;19.054;2022-07-06T00:26:18;9.07;;;8.25;;
58758;SDS011;46777;47.482;19.054;2022-07-06T00:29:04;8.98;;;8.27;;
58758;SDS011;46777;47.482;19.054;2022-07-06T00:31:49;8.65;;;7.95;;
58758;SDS011;46777;47.482;19.054;2022-07-06T00:34:34;8.25;;;7.55;;
58758;SDS011;46777;47.482;19.054;2022-07-06T00:37:19;8.15;;;7.53;;
58758;SDS011;46777;47.482;19.054;2022-07-06T00:40:04;8.23;;;7.53;;
58758;SDS011;46777;47.482;19.054;2022-07-06T00:42:49;9.23;;;8.20;;
58758;SDS011;46777;47.482;19.054;2022-07-06T00:45:34;8.90;;;8.00;;
58758;SDS011;46777;47.482;19.054;2022-07-06T00:48:19;8.70;;;7.90;;
58758;SDS011;46777;47.482;19.054;2022-07-06T00:51:04;8.57;;;7.78;;
58758;SDS011;46777;47.482;19.054;2022-07-06T00:53:49;8.20;;;7.50;;
58758;SDS011;46777;47.482;19.054;2022-07-06T00:56:34;8.90;;;8.20;;
58758;SDS011;46777;47.482;19.054;2022-07-06T00:59:19;9.15;;;8.13;;
58758;SDS011;46777;47.482;19.054;2022-07-06T01:02:04;9.32;;;8.32;;
58758;SDS011;46777;47.482;19.054;2022-07-06T01:04:49;8.50;;;7.70;;
58758;SDS011;46777;47.482;19.054;2022-07-06T01:07:34;8.18;;;7.47;;
58758;SDS011;46777;47.482;19.054;2022-07-06T01:10:20;9.55;;;8.75;;
58758;SDS011;46777;47.482;19.054;2022-07-06T01:13:06;8.20;;;7.50;;
58758;SDS011;46777;47.482;19.054;2022-07-06T01:15:51;9.40;;;8.27;;
58758;SDS011;46777;47.482;19.054;2022-07-06T01:18:36;8.82;;;8.10;;
58758;SDS011;46777;47.482;19.054;2022-07-06T01:21:22;8.55;;;7.75;;
58758;SDS011;46777;47.482;19.054;2022-07-06T01:24:06;8.88;;;8.10;;
58758;SDS011;46777;47.482;19.054;2022-07-06T01:26:51;9.00;;;8.20;;
58758;SDS011;46777;47.482;19.054;2022-07-06T01:29:36;8.80;;;8.00;;
58758;SDS011;46777;47.482;19.054;2022-07-06T01:32:20;9.10;;;8.30;;
58758;SDS011;46777;47.482;19.054;2022-07-06T01:35:06;8.80;;;8.10;;
58758;SDS011;46777;47.482;19.054;2022-07-06T01:37:52;9.65;;;8.02;;
58758;SDS011;46777;47.482;19.054;2022-07-06T01:40:37;9.02;;;8.23;;
58758;SDS011;46777;47.482;19.054;2022-07-06T01:43:21;8.98;;;8.00;;
58758;SDS011;46777;47.482;19.054;2022-07-06T01:46:06;9.00;;;8.13;;
58758;SDS011;46777;47.482;19.054;2022-07-06T01:48:52;9.13;;;8.32;;
58758;SDS011;46777;47.482;19.054;2022-07-06T01:51:37;8.90;;;8.00;;
58758;SDS011;46777;47.482;19.054;2022-07-06T01:54:22;8.63;;;7.93;;
58758;SDS011;46777;47.482;19.054;2022-07-06T01:57:06;8.68;;;7.97;;
58758;SDS011;46777;47.482;19.054;2022-07-06T01:59:51;8.75;;;8.05;;
58758;SDS011;46777;47.482;19.054;2022-07-06T02:02:36;9.20;;;8.45;;
58758;SDS011;46777;47.482;19.054;2022-07-06T02:05:21;9.43;;;8.57;;
58758;SDS011;46777;47.482;19.054;2022-07-06T02:08:06;9.57;;;8.70;;
58758;SDS011;46777;47.482;19.054;2022-07-06T02:10:50;8.95;;;8.20;;
58758;SDS011;46777;47.482;19.054;2022-07-06T02:13:35;8.50;;;7.80;;
58758;SDS011;46777;47.482;19.054;2022-07-06T02:16:21;10.10;;;9.05;;
58758;SDS011;46777;47.482;19.054;2022-07-06T02:19:06;9.18;;;8.38;;
58758;SDS011;46777;47.482;19.054;2022-07-06T02:21:50;8.98;;;8.07;;
58758;SDS011;46777;47.482;19.054;2022-07-06T02:24:35;9.15;;;8.40;;
58758;SDS011;46777;47.482;19.054;2022-07-06T02:27:20;9.20;;;8.48;;
58758;SDS011;46777;47.482;19.054;2022-07-06T02:30:05;9.52;;;8.73;;
58758;SDS011;46777;47.482;19.054;2022-07-06T02:32:50;9.38;;;8.68;;
58758;SDS011;46777;47.482;19.054;2022-07-06T02:35:36;9.90;;;9.10;;
58758;SDS011;46777;47.482;19.054;2022-07-06T02:38:26;10.43;;;8.73;;
58758;SDS011;46777;47.482;19.054;2022-07-06T02:41:10;10.57;;;9.48;;
58758;SDS011;46777;47.482;19.054;2022-07-06T02:43:55;9.40;;;8.60;;
58758;SDS011;46777;47.482;19.054;2022-07-06T02:46:40;9.52;;;8.75;;
58758;SDS011;46777;47.482;19.054;2022-07-06T02:49:25;10.05;;;9.07;;
58758;SDS011;46777;47.482;19.054;2022-07-06T02:52:10;10.43;;;9.45;;
58758;SDS011;46777;47.482;19.054;2022-07-06T02:54:55;10.38;;;9.57;;
58758;SDS011;46777;47.482;19.054;2022-07-06T02:57:40;10.38;;;9.48;;
58758;SDS011;46777;47.482;19.054;2022-07-06T03:00:24;10.85;;;9.13;;
58758;SDS011;46777;47.482;19.054;2022-07-06T03:03:09;9.85;;;8.93;;
58758;SDS011;46777;47.482;19.054;2022-07-06T03:05:54;10.10;;;9.18;;
58758;SDS011;46777;47.482;19.054;2022-07-06T03:08:39;10.45;;;9.55;;
58758;SDS011;46777;47.482;19.054;2022-07-06T03:11:24;10.15;;;9.35;;
58758;SDS011;46777;47.482;19.054;2022-07-06T03:14:09;10.38;;;9.40;;
58758;SDS011;46777;47.482;19.054;2022-07-06T03:16:53;9.82;;;8.90;;
58758;SDS011;46777;47.482;19.054;2022-07-06T03:19:38;10.30;;;9.35;;
58758;SDS011;46777;47.482;19.054;2022-07-06T03:22:23;9.95;;;9.05;;
58758;SDS011;46777;47.482;19.054;2022-07-06T03:25:08;10.45;;;9.57;;
58758;SDS011;46777;47.482;19.054;2022-07-06T03:27:53;10.38;;;9.48;;
58758;SDS011;46777;47.482;19.054;2022-07-06T03:30:38;10.73;;;9.68;;
58758;SDS011;46777;47.482;19.054;2022-07-06T03:33:23;10.25;;;9.35;;
58758;SDS011;46777;47.482;19.054;2022-07-06T03:36:07;10.38;;;9.45;;
58758;SDS011;46777;47.482;19.054;2022-07-06T03:38:52;10.05;;;9.15;;
58758;SDS011;46777;47.482;19.054;2022-07-06T03:41:37;10.35;;;9.55;;
58758;SDS011;46777;47.482;19.054;2022-07-06T03:44:22;10.20;;;9.30;;
58758;SDS011;46777;47.482;19.054;2022-07-06T03:47:07;10.48;;;9.55;;
58758;SDS011;46777;47.482;19.054;2022-07-06T03:49:52;10.90;;;9.90;;
58758;SDS011;46777;47.482;19.054;2022-07-06T03:52:37;10.10;;;9.20;;
58758;SDS011;46777;47.482;19.054;2022-07-06T03:55:24;10.50;;;9.50;;
58758;SDS011;46777;47.482;19.054;2022-07-06T03:58:09;10.32;;;9.43;;
58758;SDS011;46777;47.482;19.054;2022-07-06T04:00:54;10.48;;;9.50;;
58758;SDS011;46777;47.482;19.054;2022-07-06T04:03:38;9.70;;;8.90;;
58758;SDS011;46777;47.482;19.054;2022-07-06T04:06:23;10.75;;;9.73;;
58758;SDS011;46777;47.482;19.054;2022-07-06T04:09:08;10.45;;;9.60;;
58758;SDS011;46777;47.482;19.054;2022-07-06T04:11:53;10.02;;;9.13;;
58758;SDS011;46777;47.482;19.054;2022-07-06T04:14:38;10.27;;;9.35;;
58758;SDS011;46777;47.482;19.054;2022-07-06T04:17:23;10.18;;;9.27;;
58758;SDS011;46777;47.482;19.054;2022-07-06T04:20:26;19.05;;;17.75;;
58758;SDS011;46777;47.482;19.054;2022-07-06T04:23:11;9.35;;;8.50;;
58758;SDS011;46777;47.482;19.054;2022-07-06T04:25:56;9.93;;;8.98;;
58758;SDS011;46777;47.482;19.054;2022-07-06T04:28:41;10.52;;;9.70;;
58758;SDS011;46777;47.482;19.054;2022-07-06T04:31:26;10.30;;;9.40;;
58758;SDS011;46777;47.482;19.054;2022-07-06T04:34:10;10.10;;;9.20;;
58758;SDS011;46777;47.482;19.054;2022-07-06T04:36:55;10.60;;;9.70;;
58758;SDS011;46777;47.482;19.054;2022-07-06T04:39:40;11.07;;;10.07;;
58758;SDS011;46777;47.482;19.054;2022-07-06T04:42:25;11.27;;;10.27;;
58758;SDS011;46777;47.482;19.054;2022-07-06T04:45:10;10.85;;;9.77;;
58758;SDS011;46777;47.482;19.054;2022-07-06T04:47:54;10.88;;;9.77;;
58758;SDS011;46777;47.482;19.054;2022-07-06T04:50:39;10.10;;;9.30;;
58758;SDS011;46777;47.482;19.054;2022-07-06T04:53:24;11.82;;;9.50;;
58758;SDS011;46777;47.482;19.054;2022-07-06T04:56:09;10.25;;;9.27;;
58758;SDS011;46777;47.482;19.054;2022-07-06T04:58:53;10.75;;;9.95;;
58758;SDS011;46777;47.482;19.054;2022-07-06T05:01:38;10.70;;;9.80;;
58758;SDS011;46777;47.482;19.054;2022-07-06T05:04:24;10.48;;;9.57;;
58758;SDS011;46777;47.482;19.054;2022-07-06T05:07:09;10.35;;;9.35;;
58758;SDS011;46777;47.482;19.054;2022-07-06T05:09:54;11.07;;;10.07;;
58758;SDS011;46777;47.482;19.054;2022-07-06T05:12:39;11.43;;;9.38;;
58758;SDS011;46777;47.482;19.054;2022-07-06T05:15:25;10.15;;;9.25;;
58758;SDS011;46777;47.482;19.054;2022-07-06T05:18:09;10.57;;;9.77;;
58758;SDS011;46777;47.482;19.054;2022-07-06T05:20:54;10.68;;;9.65;;
58758;SDS011;46777;47.482;19.054;2022-07-06T05:23:39;10.18;;;9.18;;
58758;SDS011;46777;47.482;19.054;2022-07-06T05:26:24;10.30;;;9.50;;
58758;SDS011;46777;47.482;19.054;2022-07-06T05:29:09;10.60;;;9.65;;
58758;SDS011;46777;47.482;19.054;2022-07-06T05:31:53;10.32;;;9.32;;
58758;SDS011;46777;47.482;19.054;2022-07-06T05:34:38;10.48;;;9.57;;
58758;SDS011;46777;47.482;19.054;2022-07-06T05:37:24;10.07;;;9.10;;
58758;SDS011;46777;47.482;19.054;2022-07-06T05:40:09;9.80;;;8.77;;
58758;SDS011;46777;47.482;19.054;2022-07-06T05:42:54;10.68;;;9.68;;
58758;SDS011;46777;47.482;19.054;2022-07-06T05:45:38;10.25;;;9.45;;
58758;SDS011;46777;47.482;19.054;2022-07-06T05:48:23;9.30;;;8.60;;
58758;SDS011;46777;47.482;19.054;2022-07-06T05:51:26;9.70;;;8.90;;
58758;SDS011;46777;47.482;19.054;2022-07-06T05:54:11;9.45;;;8.55;;
58758;SDS011;46777;47.482;19.054;2022-07-06T05:56:56;9.63;;;8.68;;
58758;SDS011;46777;47.482;19.054;2022-07-06T05:59:41;9.82;;;9.02;;
58758;SDS011;46777;47.482;19.054;2022-07-06T06:02:25;9.18;;;8.48;;
58758;SDS011;46777;47.482;19.054;2022-07-06T06:05:10;9.30;;;8.60;;
58758;SDS011;46777;47.482;19.054;2022-07-06T06:07:55;11.27;;;10.18;;
58758;SDS011;46777;47.482;19.054;2022-07-06T06:10:40;12.02;;;11.02;;
58758;SDS011;46777;47.482;19.054;2022-07-06T06:13:25;12.63;;;11.60;;
58758;SDS011;46777;47.482;19.054;2022-07-06T06:16:09;9.85;;;9.05;;
58758;SDS011;46777;47.482;19.054;2022-07-06T06:18:54;11.02;;;10.18;;
58758;SDS011;46777;47.482;19.054;2022-07-06T06:21:39;10.57;;;9.68;;
58758;SDS011;46777;47.482;19.054;2022-07-06T06:24:24;11.38;;;10.38;;
58758;SDS011;46777;47.482;19.054;2022-07-06T06:27:09;10.77;;;9.93;;
58758;SDS011;46777;47.482;19.054;2022-07-06T06:29:54;10.90;;;10.00;;
58758;SDS011;46777;47.482;19.054;2022-07-06T06:32:39;10.30;;;9.30;;
58758;SDS011;46777;47.482;19.054;2022-07-06T06:35:24;10.65;;;9.80;;
58758;SDS011;46777;47.482;19.054;2022-07-06T06:38:09;10.63;;;9.70;;
58758;SDS011;46777;47.482;19.054;2022-07-06T06:40:54;10.73;;;9.77;;
58758;SDS011;46777;47.482;19.054;2022-07-06T06:43:39;12.10;;;10.90;;
58758;SDS011;46777;47.482;19.054;2022-07-06T06:46:24;10.40;;;9.40;;
58758;SDS011;46777;47.482;19.054;2022-07-06T06:49:08;10.60;;;9.60;;
58758;SDS011;46777;47.482;19.054;2022-07-06T06:51:53;10.57;;;9.52;;
58758;SDS011;46777;47.482;19.054;2022-07-06T06:54:38;10.27;;;9.38;;
58758;SDS011;46777;47.482;19.054;2022-07-06T06:57:23;10.43;;;9.50;;
58758;SDS011;46777;47.482;19.054;2022-07-06T07:00:08;10.55;;;9.57;;
58758;SDS011;46777;47.482;19.054;2022-07-06T07:02:53;10.85;;;9.95;;
58758;SDS011;46777;47.482;19.054;2022-07-06T07:05:38;10.77;;;9.82;;
58758;SDS011;46777;47.482;19.054;2022-07-06T07:08:23;10.68;;;9.82;;
58758;SDS011;46777;47.482;19.054;2022-07-06T07:11:08;10.70;;;9.88;;
58758;SDS011;46777;47.482;19.054;2022-07-06T07:13:53;10.52;;;9.65;;
58758;SDS011;46777;47.482;19.054;2022-07-06T07:16:37;9.90;;;9.00;;
58758;SDS011;46777;47.482;19.054;2022-07-06T07:19:22;10.57;;;9.77;;
58758;SDS011;46777;47.482;19.054;2022-07-06T07:22:07;10.55;;;9.65;;
58758;SDS011;46777;47.482;19.054;2022-07-06T07:24:52;9.95;;;9.10;;
58758;SDS011;46777;47.482;19.054;2022-07-06T07:27:37;10.45;;;9.45;;
58758;SDS011;46777;47.482;19.054;2022-07-06T07:30:22;10.70;;;9.90;;
58758;SDS011;46777;47.482;19.054;2022-07-06T07:33:06;10.07;;;9.18;;
58758;SDS011;46777;47.482;19.054;2022-07-06T07:35:51;9.57;;;8.88;;
58758;SDS011;46777;47.482;19.054;2022-07-06T07:38:36;9.60;;;8.70;;
58758;SDS011;46777;47.482;19.054;2022-07-06T07:41:21;9.88;;;9.07;;
58758;SDS011;46777;47.482;19.054;2022-07-06T07:44:06;10.00;;;9.10;;
58758;SDS011;46777;47.482;19.054;2022-07-06T07:46:51;9.45;;;8.65;;
58758;SDS011;46777;47.482;19.054;2022-07-06T07:49:36;9.38;;;8.65;;
58758;SDS011;46777;47.482;19.054;2022-07-06T07:52:21;9.50;;;8.80;;
58758;SDS011;46777;47.482;19.054;2022-07-06T07:55:06;9.02;;;8.32;;
58758;SDS011;46777;47.482;19.054;2022-07-06T07:57:51;9.10;;;8.30;;
58758;SDS011;46777;47.482;19.054;2022-07-06T08:00:36;10.40;;;9.60;;
58758;SDS011;46777;47.482;19.054;2022-07-06T08:03:21;10.32;;;9.40;;
58758;SDS011;46777;47.482;19.054;2022-07-06T08:06:06;10.55;;;9.50;;
58758;SDS011;46777;47.482;19.054;2022-07-06T08:08:51;9.50;;;8.80;;
58758;SDS011;46777;47.482;19.054;2022-07-06T08:11:35;9.48;;;8.77;;
58758;SDS011;46777;47.482;19.054;2022-07-06T08:14:20;9.48;;;8.77;;
58758;SDS011;46777;47.482;19.054;2022-07-06T08:17:05;9.77;;;8.85;;
58758;SDS011;46777;47.482;19.054;2022-07-06T08:19:50;9.70;;;9.00;;
58758;SDS011;46777;47.482;19.054;2022-07-06T08:22:35;9.75;;;8.98;;
58758;SDS011;46777;47.482;19.054;2022-07-06T08:25:20;9.38;;;8.65;;
58758;SDS011;46777;47.482;19.054;2022-07-06T08:28:05;8.32;;;7.63;;
58758;SDS011;46777;47.482;19.054;2022-07-06T08:30:50;9.10;;;8.07;;
58758;SDS011;46777;47.482;19.054;2022-07-06T08:33:35;9.05;;;8.13;;
58758;SDS011;46777;47.482;19.054;2022-07-06T08:36:20;9.32;;;8.52;;
58758;SDS011;46777;47.482;19.054;2022-07-06T08:39:05;9.27;;;8.48;;
58758;SDS011;46777;47.482;19.054;2022-07-06T08:41:49;8.57;;;7.88;;
58758;SDS011;46777;47.482;19.054;2022-07-06T08:44:35;8.13;;;7.50;;
58758;SDS011;46777;47.482;19.054;2022-07-06T08:47:21;8.70;;;8.07;;
58758;SDS011;46777;47.482;19.054;2022-07-06T08:50:07;8.75;;;8.05;;
58758;SDS011;46777;47.482;19.054;2022-07-06T08:52:54;9.38;;;8.07;;
58758;SDS011;46777;47.482;19.054;2022-07-06T08:55:39;8.68;;;7.95;;
58758;SDS011;46777;47.482;19.054;2022-07-06T08:58:25;7.65;;;7.05;;
58758;SDS011;46777;47.482;19.054;2022-07-06T09:01:11;7.75;;;7.05;;
58758;SDS011;46777;47.482;19.054;2022-07-06T09:03:56;7.57;;;6.88;;
58758;SDS011;46777;47.482;19.054;2022-07-06T09:06:43;8.68;;;7.88;;
58758;SDS011;46777;47.482;19.054;2022-07-06T09:09:31;8.10;;;7.50;;
58758;SDS011;46777;47.482;19.054;2022-07-06T09:12:16;9.43;;;8.45;;
58758;SDS011;46777;47.482;19.054;2022-07-06T09:15:01;8.52;;;7.82;;
58758;SDS011;46777;47.482;19.054;2022-07-06T09:17:46;8.20;;;7.50;;
58758;SDS011;46777;47.482;19.054;2022-07-06T09:20:30;8.35;;;7.57;;
58758;SDS011;46777;47.482;19.054;2022-07-06T09:23:16;8.40;;;7.60;;
58758;SDS011;46777;47.482;19.054;2022-07-06T09:26:02;8.05;;;7.35;;
58758;SDS011;46777;47.482;19.054;2022-07-06T09:28:48;8.50;;;7.70;;
58758;SDS011;46777;47.482;19.054;2022-07-06T09:31:33;8.77;;;7.90;;
58758;SDS011;46777;47.482;19.054;2022-07-06T09:34:17;7.88;;;7.18;;
58758;SDS011;46777;47.482;19.054;2022-07-06T09:37:02;8.50;;;7.80;;
58758;SDS011;46777;47.482;19.054;2022-07-06T09:39:47;8.55;;;7.85;;
58758;SDS011;46777;47.482;19.054;2022-07-06T09:42:32;8.63;;;7.82;;
58758;SDS011;46777;47.482;19.054;2022-07-06T09:45:20;8.23;;;7.53;;
58758;SDS011;46777;47.482;19.054;2022-07-06T09:48:06;8.50;;;7.80;;
58758;SDS011;46777;47.482;19.054;2022-07-06T09:51:00;8.65;;;7.88;;
58758;SDS011;46777;47.482;19.054;2022-07-06T09:53:51;9.30;;;8.50;;
58758;SDS011;46777;47.482;19.054;2022-07-06T09:56:36;8.85;;;8.15;;
58758;SDS011;46777;47.482;19.054;2022-07-06T09:59:26;8.88;;;8.23;;
58758;SDS011;46777;47.482;19.054;2022-07-06T10:02:13;8.93;;;8.13;;
58758;SDS011;46777;47.482;19.054;2022-07-06T10:04:58;8.35;;;7.72;;
58758;SDS011;46777;47.482;19.054;2022-07-06T10:07:45;9.05;;;8.35;;
58758;SDS011;46777;47.482;19.054;2022-07-06T10:10:33;8.75;;;8.02;;
58758;SDS011;46777;47.482;19.054;2022-07-06T10:13:19;8.15;;;7.55;;
58758;SDS011;46777;47.482;19.054;2022-07-06T10:16:06;8.65;;;8.05;;
58758;SDS011;46777;47.482;19.054;2022-07-06T10:18:51;8.00;;;7.40;;
58758;SDS011;46777;47.482;19.054;2022-07-06T10:21:40;8.40;;;7.60;;
58758;SDS011;46777;47.482;19.054;2022-07-06T10:24:25;8.38;;;7.70;;
58758;SDS011;46777;47.482;19.054;2022-07-06T10:27:12;7.55;;;6.93;;
58758;SDS011;46777;47.482;19.054;2022-07-06T10:29:59;8.25;;;7.55;;
58758;SDS011;46777;47.482;19.054;2022-07-06T10:32:46;8.02;;;7.43;;
58758;SDS011;46777;47.482;19.054;2022-07-06T10:35:32;7.95;;;7.07;;
58758;SDS011;46777;47.482;19.054;2022-07-06T10:38:18;7.90;;;7.05;;
58758;SDS011;46777;47.482;19.054;2022-07-06T10:41:04;8.43;;;7.47;;
58758;SDS011;46777;47.482;19.054;2022-07-06T10:43:50;7.50;;;6.78;;
58758;SDS011;46777;47.482;19.054;2022-07-06T10:46:35;7.50;;;6.80;;
58758;SDS011;46777;47.482;19.054;2022-07-06T10:49:21;7.63;;;7.00;;
58758;SDS011;46777;47.482;19.054;2022-07-06T10:52:06;7.65;;;7.05;;
58758;SDS011;46777;47.482;19.054;2022-07-06T10:54:51;7.20;;;6.60;;
58758;SDS011;46777;47.482;19.054;2022-07-06T10:57:52;7.65;;;7.05;;
58758;SDS011;46777;47.482;19.054;2022-07-06T11:00:53;7.22;;;6.63;;
58758;SDS011;46777;47.482;19.054;2022-07-06T11:03:40;7.57;;;6.95;;
58758;SDS011;46777;47.482;19.054;2022-07-06T11:06:26;7.45;;;6.85;;
58758;SDS011;46777;47.482;19.054;2022-07-06T11:09:11;7.35;;;6.65;;
58758;SDS011;46777;47.482;19.054;2022-07-06T11:11:55;7.50;;;6.80;;
58758;SDS011;46777;47.482;19.054;2022-07-06T11:14:41;7.40;;;6.70;;
58758;SDS011;46777;47.482;19.054;2022-07-06T11:17:25;7.88;;;6.95;;
58758;SDS011;46777;47.482;19.054;2022-07-06T11:20:11;7.13;;;6.53;;
58758;SDS011;46777;47.482;19.054;2022-07-06T11:22:56;7.47;;;6.88;;
58758;SDS011;46777;47.482;19.054;2022-07-06T11:25:41;7.53;;;6.82;;
58758;SDS011;46777;47.482;19.054;2022-07-06T11:28:25;7.43;;;6.72;;
58758;SDS011;46777;47.482;19.054;2022-07-06T11:31:10;7.75;;;7.05;;
58758;SDS011;46777;47.482;19.054;2022-07-06T11:33:55;7.60;;;6.90;;
58758;SDS011;46777;47.482;19.054;2022-07-06T11:36:40;7.78;;;7.07;;
58758;SDS011;46777;47.482;19.054;2022-07-06T11:39:29;8.48;;;7.57;;
58758;SDS011;46777;47.482;19.054;2022-07-06T11:42:16;8.90;;;8.10;;
58758;SDS011;46777;47.482;19.054;2022-07-06T11:45:02;8.77;;;8.02;;
58758;SDS011;46777;47.482;19.054;2022-07-06T11:47:47;8.30;;;7.53;;
58758;SDS011;46777;47.482;19.054;2022-07-06T11:50:31;8.20;;;7.60;;
58758;SDS011;46777;47.482;19.054;2022-07-06T11:53:16;7.40;;;6.80;;
58758;SDS011;46777;47.482;19.054;2022-07-06T11:56:02;7.88;;;7.20;;
58758;SDS011;46777;47.482;19.054;2022-07-06T11:58:51;7.97;;;7.20;;
58758;SDS011;46777;47.482;19.054;2022-07-06T12:01:37;8.97;;;8.00;;
58758;SDS011;46777;47.482;19.054;2022-07-06T12:04:25;8.15;;;7.55;;
58758;SDS011;46777;47.482;19.054;2022-07-06T12:07:11;7.80;;;7.10;;
58758;SDS011;46777;47.482;19.054;2022-07-06T12:10:00;8.05;;;7.43;;
58758;SDS011;46777;47.482;19.054;2022-07-06T12:12:45;8.45;;;7.75;;
58758;SDS011;46777;47.482;19.054;2022-07-06T12:15:29;8.25;;;7.63;;
58758;SDS011;46777;47.482;19.054;2022-07-06T12:18:14;8.27;;;7.57;;
58758;SDS011;46777;47.482;19.054;2022-07-06T12:20:59;9.10;;;8.30;;
58758;SDS011;46777;47.482;19.054;2022-07-06T12:23:45;8.75;;;7.93;;
58758;SDS011;46777;47.482;19.054;2022-07-06T12:26:38;8.60;;;7.80;;
58758;SDS011;46777;47.482;19.054;2022-07-06T12:29:24;8.10;;;7.50;;
58758;SDS011;46777;47.482;19.054;2022-07-06T12:32:22;12.18;;;11.38;;
58758;SDS011;46777;47.482;19.054;2022-07-06T12:35:07;8.30;;;7.60;;
58758;SDS011;46777;47.482;19.054;2022-07-06T12:37:56;9.02;;;8.43;;
58758;SDS011;46777;47.482;19.054;2022-07-06T12:40:45;8.52;;;7.93;;
58758;SDS011;46777;47.482;19.054;2022-07-06T12:43:39;9.43;;;8.63;;
58758;SDS011;46777;47.482;19.054;2022-07-06T12:46:29;9.23;;;8.52;;
58758;SDS011;46777;47.482;19.054;2022-07-06T12:49:19;8.75;;;8.15;;
58758;SDS011;46777;47.482;19.054;2022-07-06T12:52:12;7.70;;;7.20;;
58758;SDS011;46777;47.482;19.054;2022-07-06T12:54:59;8.38;;;7.70;;
58758;SDS011;46777;47.482;19.054;2022-07-06T12:57:45;7.90;;;7.38;;
58758;SDS011;46777;47.482;19.054;2022-07-06T13:00:43;9.37;;;8.73;;
58758;SDS011;46777;47.482;19.054;2022-07-06T13:03:39;9.15;;;8.45;;
58758;SDS011;46777;47.482;19.054;2022-07-06T13:06:42;7.63;;;6.95;;
58758;SDS011;46777;47.482;19.054;2022-07-06T13:09:27;6.85;;;6.35;;
58758;SDS011;46777;47.482;19.054;2022-07-06T13:12:13;6.10;;;5.50;;
58758;SDS011;46777;47.482;19.054;2022-07-06T13:14:58;8.07;;;7.30;;
58758;SDS011;46777;47.482;19.054;2022-07-06T13:17:43;7.60;;;6.90;;
58758;SDS011;46777;47.482;19.054;2022-07-06T13:20:28;8.30;;;7.53;;
58758;SDS011;46777;47.482;19.054;2022-07-06T13:23:13;7.20;;;6.60;;
58758;SDS011;46777;47.482;19.054;2022-07-06T13:25:58;7.80;;;7.20;;
58758;SDS011;46777;47.482;19.054;2022-07-06T13:28:43;7.63;;;7.13;;
58758;SDS011;46777;47.482;19.054;2022-07-06T13:31:28;7.43;;;6.93;;
58758;SDS011;46777;47.482;19.054;2022-07-06T13:34:13;7.15;;;6.32;;
58758;SDS011;46777;47.482;19.054;2022-07-06T13:36:58;6.70;;;6.20;;
58758;SDS011;46777;47.482;19.054;2022-07-06T13:39:48;7.27;;;6.63;;
58758;SDS011;46777;47.482;19.054;2022-07-06T13:42:32;7.22;;;6.53;;
58758;SDS011;46777;47.482;19.054;2022-07-06T13:45:17;7.60;;;6.82;;
58758;SDS011;46777;47.482;19.054;2022-07-06T13:48:02;7.70;;;6.95;;
58758;SDS011;46777;47.482;19.054;2022-07-06T13:50:47;7.00;;;6.45;;
58758;SDS011;46777;47.482;19.054;2022-07-06T13:53:32;7.53;;;6.82;;
58758;SDS011;46777;47.482;19.054;2022-07-06T13:56:17;7.20;;;6.70;;
58758;SDS011;46777;47.482;19.054;2022-07-06T13:59:02;7.53;;;6.93;;
58758;SDS011;46777;47.482;19.054;2022-07-06T14:01:46;7.05;;;6.35;;
58758;SDS011;46777;47.482;19.054;2022-07-06T14:04:31;8.40;;;7.70;;
58758;SDS011;46777;47.482;19.054;2022-07-06T14:07:16;7.90;;;6.72;;
58758;SDS011;46777;47.482;19.054;2022-07-06T14:10:01;6.75;;;6.18;;
58758;SDS011;46777;47.482;19.054;2022-07-06T14:12:46;7.35;;;6.70;;
58758;SDS011;46777;47.482;19.054;2022-07-06T14:15:31;7.00;;;6.43;;
58758;SDS011;46777;47.482;19.054;2022-07-06T14:18:16;7.20;;;6.60;;
58758;SDS011;46777;47.482;19.054;2022-07-06T14:21:03;7.45;;;6.45;;
58758;SDS011;46777;47.482;19.054;2022-07-06T14:23:48;6.90;;;6.30;;
58758;SDS011;46777;47.482;19.054;2022-07-06T14:26:33;7.03;;;6.50;;
58758;SDS011;46777;47.482;19.054;2022-07-06T14:29:18;7.38;;;6.70;;
58758;SDS011;46777;47.482;19.054;2022-07-06T14:32:02;7.43;;;6.82;;
58758;SDS011;46777;47.482;19.054;2022-07-06T14:34:47;7.63;;;7.03;;
58758;SDS011;46777;47.482;19.054;2022-07-06T14:37:32;7.60;;;7.00;;
58758;SDS011;46777;47.482;19.054;2022-07-06T14:40:17;7.25;;;6.57;;
58758;SDS011;46777;47.482;19.054;2022-07-06T14:43:02;7.22;;;6.60;;
58758;SDS011;46777;47.482;19.054;2022-07-06T14:45:47;8.43;;;6.50;;
58758;SDS011;46777;47.482;19.054;2022-07-06T14:48:32;6.75;;;5.78;;
58758;SDS011;46777;47.482;19.054;2022-07-06T14:51:17;6.35;;;5.85;;
58758;SDS011;46777;47.482;19.054;2022-07-06T14:54:01;6.78;;;6.03;;
58758;SDS011;46777;47.482;19.054;2022-07-06T14:56:46;6.38;;;5.88;;
58758;SDS011;46777;47.482;19.054;2022-07-06T14:59:31;6.32;;;5.80;;
58758;SDS011;46777;47.482;19.054;2022-07-06T15:02:16;5.80;;;5.30;;
58758;SDS011;46777;47.482;19.054;2022-07-06T15:05:01;5.80;;;5.30;;
58758;SDS011;46777;47.482;19.054;2022-07-06T15:07:45;5.93;;;5.38;;
58758;SDS011;46777;47.482;19.054;2022-07-06T15:10:30;6.43;;;6.03;;
58758;SDS011;46777;47.482;19.054;2022-07-06T15:13:15;6.47;;;6.00;;
58758;SDS011;46777;47.482;19.054;2022-07-06T15:16:00;7.43;;;6.80;;
58758;SDS011;46777;47.482;19.054;2022-07-06T15:18:45;6.45;;;6.05;;
58758;SDS011;46777;47.482;19.054;2022-07-06T15:21:30;6.80;;;6.30;;
58758;SDS011;46777;47.482;19.054;2022-07-06T15:24:15;8.82;;;6.80;;
58758;SDS011;46777;47.482;19.054;2022-07-06T15:27:01;7.55;;;6.85;;
58758;SDS011;46777;47.482;19.054;2022-07-06T15:29:46;6.90;;;6.30;;
58758;SDS011;46777;47.482;19.054;2022-07-06T15:32:31;7.00;;;6.50;;
58758;SDS011;46777;47.482;19.054;2022-07-06T15:35:16;6.72;;;6.22;;
58758;SDS011;46777;47.482;19.054;2022-07-06T15:38:01;7.00;;;6.50;;
58758;SDS011;46777;47.482;19.054;2022-07-06T15:40:46;7.20;;;6.55;;
58758;SDS011;46777;47.482;19.054;2022-07-06T15:43:42;7.40;;;6.90;;
58758;SDS011;46777;47.482;19.054;2022-07-06T15:46:27;7.20;;;6.65;;
58758;SDS011;46777;47.482;19.054;2022-07-06T15:49:12;7.15;;;6.65;;
58758;SDS011;46777;47.482;19.054;2022-07-06T15:51:57;6.70;;;6.30;;
58758;SDS011;46777;47.482;19.054;2022-07-06T15:54:42;7.22;;;6.63;;
58758;SDS011;46777;47.482;19.054;2022-07-06T15:57:27;7.60;;;7.00;;
58758;SDS011;46777;47.482;19.054;2022-07-06T16:00:12;5.65;;;5.15;;
58758;SDS011;46777;47.482;19.054;2022-07-06T16:02:57;6.57;;;6.10;;
58758;SDS011;46777;47.482;19.054;2022-07-06T16:05:42;7.00;;;6.50;;
58758;SDS011;46777;47.482;19.054;2022-07-06T16:08:27;7.45;;;6.88;;
58758;SDS011;46777;47.482;19.054;2022-07-06T16:11:12;6.55;;;6.15;;
58758;SDS011;46777;47.482;19.054;2022-07-06T16:14:00;6.50;;;5.97;;
58758;SDS011;46777;47.482;19.054;2022-07-06T16:16:45;5.88;;;5.57;;
58758;SDS011;46777;47.482;19.054;2022-07-06T16:19:30;6.70;;;6.30;;